Time;durP1;ratioP1;P1;durP2;ratioP2;P2;SDS_P1;SDS_P2;PMS_P1;PMS_P2;Temp;Humidity;BMP_temperature;BMP_pressure;BME280_temperature;BME280_humidity;BME280_pressure;Samples;Min_cycle;Max_cycle;Signal;HPM_P1;HPM_P2
2023/10/19 00:00:44;;;;;;;;;;;17.20;64.10;;;;;;10285528;28;94754;-67
2023/10/19 00:05:46;;;;;;;;;;;17.20;64.10;;;;;;10262707;28;93521;-68
2023/10/19 00:11:02;;;;;;;;;;;17.20;64.10;;;;;;10280867;28;96826;-67
2023/10/19 00:16:17;;;;;;;;;;;17.20;64.10;;;;;;10254061;28;94528;-67
2023/10/19 00:21:28;;;;;;;;;;;17.20;64.10;;;;;;10280780;28;94685;-67
2023/10/19 00:26:30;;;;;;;;;;;17.20;64.10;;;;;;10268418;28;93562;-67
2023/10/19 00:31:36;;;;;;;;;;;17.20;64.10;;;;;;10281340;28;93849;-67
2023/10/19 00:36:39;;;;;;;;;;;17.20;64.10;;;;;;10262139;28;93614;-67
2023/10/19 00:41:42;;;;;;;;;;;17.20;64.10;;;;;;10265230;28;92818;-67
2023/10/19 00:46:49;;;;;;;;;;;17.20;64.10;;;;;;10280410;28;93743;-67
2023/10/19 00:56:58;;;;;;;;;;;17.20;64.10;;;;;;10285097;28;94562;-67
2023/10/19 01:07:15;;;;;;;;;;;17.20;64.00;;;;;;10170320;23;93640;-48
2023/10/19 01:17:38;;;;;;;;;;;17.20;63.90;;;;;;10203766;28;94422;-48
2023/10/19 01:22:44;;;;;;;;;;;17.20;63.80;;;;;;10207350;28;94042;-48
2023/10/19 01:27:47;;;;;;;;;;;17.20;63.70;;;;;;10187616;28;93330;-50
2023/10/19 01:32:49;;;;;;;;;;;17.20;63.70;;;;;;10198001;28;93936;-50
2023/10/19 01:37:51;;;;;;;;;;;17.20;63.70;;;;;;10197936;28;93305;-50
2023/10/19 01:42:53;;;;;;;;;;;17.20;63.70;;;;;;10183207;28;94215;-52
2023/10/19 01:47:54;;;;;;;;;;;17.20;63.70;;;;;;10196848;28;93988;-50
2023/10/19 01:52:58;;;;;;;;;;;17.20;63.70;;;;;;10186249;28;95373;-49
2023/10/19 01:58:00;;;;;;;;;;;17.20;63.70;;;;;;10205406;28;93662;-49
2023/10/19 02:03:07;;;;;;;;;;;17.10;64.00;;;;;;10180367;28;98424;-48
2023/10/19 02:08:09;;;;;;;;;;;17.10;63.70;;;;;;10197570;28;93687;-50
2023/10/19 02:13:10;;;;;;;;;;;17.10;63.70;;;;;;10195603;28;93478;-51
2023/10/19 02:18:12;;;;;;;;;;;17.10;63.70;;;;;;10200335;28;93406;-53
2023/10/19 02:23:14;;;;;;;;;;;17.10;63.70;;;;;;10199388;28;94264;-53
2023/10/19 02:28:18;;;;;;;;;;;17.10;63.60;;;;;;10180167;28;92943;-53
2023/10/19 02:33:20;;;;;;;;;;;17.10;63.80;;;;;;10195396;28;93714;-52
2023/10/19 02:38:22;;;;;;;;;;;17.10;63.70;;;;;;10200085;28;93525;-53
2023/10/19 02:43:24;;;;;;;;;;;17.10;63.80;;;;;;10183563;28;96804;-49
2023/10/19 02:48:26;;;;;;;;;;;17.10;63.80;;;;;;10185379;28;93800;-52
2023/10/19 02:53:28;;;;;;;;;;;17.10;63.80;;;;;;10188023;28;94388;-50
2023/10/19 02:58:29;;;;;;;;;;;17.10;63.90;;;;;;10198836;28;93539;-48
2023/10/19 03:03:31;;;;;;;;;;;17.00;63.80;;;;;;10201815;28;94267;-48
2023/10/19 03:08:35;;;;;;;;;;;17.00;63.80;;;;;;10188035;28;94366;-50
2023/10/19 03:13:37;;;;;;;;;;;17.00;63.90;;;;;;10205107;28;93493;-49
2023/10/19 03:18:39;;;;;;;;;;;17.00;63.80;;;;;;10196333;28;93266;-49
2023/10/19 03:23:40;;;;;;;;;;;17.00;63.90;;;;;;10202713;28;94460;-49
2023/10/19 03:28:43;;;;;;;;;;;17.00;63.90;;;;;;10182194;28;93432;-53
2023/10/19 03:33:49;;;;;;;;;;;17.00;63.90;;;;;;10202878;28;97342;-50
2023/10/19 03:38:53;;;;;;;;;;;17.00;63.90;;;;;;10205552;28;94632;-52
2023/10/19 03:43:57;;;;;;;;;;;17.00;64.00;;;;;;10190684;28;94467;-52
2023/10/19 03:49:03;;;;;;;;;;;17.00;64.00;;;;;;10193506;28;94858;-48
2023/10/19 03:54:20;;;;;;;;;;;17.00;64.10;;;;;;10204963;28;94554;-51
2023/10/19 03:59:23;;;;;;;;;;;17.00;64.00;;;;;;10202032;28;93827;-51
2023/10/19 04:04:25;;;;;;;;;;;17.00;64.10;;;;;;10196151;28;93067;-53
2023/10/19 04:09:28;;;;;;;;;;;16.90;64.10;;;;;;10204920;28;93036;-51
2023/10/19 04:14:30;;;;;;;;;;;17.00;64.20;;;;;;10205175;28;95916;-51
2023/10/19 04:19:32;;;;;;;;;;;16.90;64.10;;;;;;10203766;28;93482;-52
2023/10/19 04:24:34;;;;;;;;;;;16.90;64.10;;;;;;10196747;28;96432;-52
2023/10/19 04:29:39;;;;;;;;;;;16.90;64.00;;;;;;10202301;28;93633;-52
2023/10/19 04:34:41;;;;;;;;;;;17.00;64.10;;;;;;10198573;28;93473;-53
2023/10/19 04:39:44;;;;;;;;;;;17.00;64.10;;;;;;10197384;28;93728;-50
2023/10/19 04:44:46;;;;;;;;;;;17.00;64.10;;;;;;10196185;28;94542;-52
2023/10/19 04:49:48;;;;;;;;;;;17.00;64.20;;;;;;10199767;28;94674;-51
2023/10/19 04:54:50;;;;;;;;;;;17.00;64.30;;;;;;10194519;28;93190;-49
2023/10/19 04:59:52;;;;;;;;;;;17.00;64.30;;;;;;10197568;28;92715;-51
2023/10/19 05:04:53;;;;;;;;;;;17.00;64.30;;;;;;10190035;28;93505;-51
2023/10/19 05:09:55;;;;;;;;;;;17.00;64.20;;;;;;10191969;28;94622;-52
2023/10/19 05:14:57;;;;;;;;;;;17.10;64.30;;;;;;10187871;28;95876;-48
2023/10/19 05:19:59;;;;;;;;;;;17.10;64.30;;;;;;10210059;28;94252;-49
2023/10/19 05:25:01;;;;;;;;;;;17.10;64.40;;;;;;10198605;28;93497;-49
2023/10/19 05:30:04;;;;;;;;;;;17.10;64.40;;;;;;10183722;28;94421;-48
2023/10/19 05:35:06;;;;;;;;;;;17.10;64.60;;;;;;10189449;28;94903;-53
2023/10/19 05:40:12;;;;;;;;;;;17.10;64.70;;;;;;10210250;28;93481;-49
2023/10/19 05:45:16;;;;;;;;;;;17.10;64.80;;;;;;10191576;28;93929;-56
2023/10/19 05:50:18;;;;;;;;;;;17.10;64.90;;;;;;10201283;28;92727;-49
2023/10/19 05:55:21;;;;;;;;;;;17.10;64.90;;;;;;10194533;28;93446;-49
2023/10/19 06:00:25;;;;;;;;;;;17.10;65.60;;;;;;10180605;28;94436;-51
2023/10/19 06:05:27;;;;;;;;;;;17.10;66.20;;;;;;10173165;28;96504;-52
2023/10/19 06:10:29;;;;;;;;;;;17.20;66.40;;;;;;10184150;28;93255;-51
2023/10/19 06:15:32;;;;;;;;;;;17.20;66.70;;;;;;10171116;28;93436;-54
2023/10/19 06:20:34;;;;;;;;;;;17.20;66.80;;;;;;10195871;28;94893;-55
2023/10/19 06:25:35;;;;;;;;;;;17.30;67.10;;;;;;10194121;28;93011;-55
2023/10/19 06:30:37;;;;;;;;;;;17.30;67.60;;;;;;10201233;28;93725;-55
2023/10/19 06:35:40;;;;;;;;;;;17.30;67.70;;;;;;10198433;28;93401;-55
2023/10/19 06:40:42;;;;;;;;;;;17.30;68.10;;;;;;10178505;28;92293;-52
2023/10/19 06:45:44;;;;;;;;;;;17.30;68.10;;;;;;10186735;28;94398;-54
2023/10/19 06:50:46;;;;;;;;;;;17.30;67.70;;;;;;10207843;28;93175;-52
2023/10/19 06:55:54;;;;;;;;;;;17.30;67.70;;;;;;10204431;28;97311;-50
2023/10/19 07:00:56;;;;;;;;;;;17.20;67.60;;;;;;10195715;28;94754;-53
2023/10/19 07:05:59;;;;;;;;;;;17.20;67.70;;;;;;10206498;28;93661;-53
2023/10/19 07:11:01;;;;;;;;;;;17.20;67.80;;;;;;10204473;28;94389;-53
2023/10/19 07:16:03;;;;;;;;;;;17.20;67.60;;;;;;10207138;28;93517;-53
2023/10/19 07:21:09;;;;;;;;;;;17.10;67.90;;;;;;10181649;28;94487;-53
2023/10/19 07:26:13;;;;;;;;;;;17.10;67.50;;;;;;10165407;28;94154;-52
2023/10/19 07:31:15;;;;;;;;;;;17.10;67.60;;;;;;10202405;28;93873;-54
2023/10/19 07:36:18;;;;;;;;;;;17.10;67.50;;;;;;10194572;28;93404;-54
2023/10/19 07:41:20;;;;;;;;;;;17.10;67.50;;;;;;10202963;28;93374;-54
2023/10/19 07:46:22;;;;;;;;;;;17.10;67.60;;;;;;10195061;28;96203;-53
2023/10/19 07:51:24;;;;;;;;;;;17.10;67.60;;;;;;10194857;28;93436;-54
2023/10/19 07:56:26;;;;;;;;;;;17.00;67.50;;;;;;10200654;28;93995;-53
2023/10/19 08:01:28;;;;;;;;;;;17.00;67.50;;;;;;10203313;28;94129;-54
2023/10/19 08:06:31;;;;;;;;;;;17.00;67.60;;;;;;10185086;28;93523;-53
2023/10/19 08:11:33;;;;;;;;;;;17.00;68.40;;;;;;10201445;28;93461;-54
2023/10/19 08:16:36;;;;;;;;;;;17.10;67.50;;;;;;10205288;28;93879;-53
2023/10/19 08:21:38;;;;;;;;;;;17.00;67.30;;;;;;10194605;28;93950;-54
2023/10/19 08:26:41;;;;;;;;;;;17.10;67.20;;;;;;10203407;28;93500;-53
2023/10/19 08:31:46;;;;;;;;;;;17.00;67.20;;;;;;10203603;28;94087;-52
2023/10/19 08:36:49;;;;;;;;;;;17.00;67.10;;;;;;10198469;28;96323;-53
2023/10/19 08:41:53;;;;;;;;;;;17.10;67.10;;;;;;10202839;28;93401;-54
2023/10/19 08:46:57;;;;;;;;;;;17.10;67.10;;;;;;10192672;28;93621;-54
2023/10/19 08:52:00;;;;;;;;;;;17.00;66.90;;;;;;10204109;28;94174;-53
2023/10/19 08:57:02;;;;;;;;;;;17.10;66.90;;;;;;10204001;28;93406;-53
2023/10/19 09:02:06;;;;;;;;;;;17.00;66.80;;;;;;10200808;28;93464;-53
2023/10/19 09:07:10;;;;;;;;;;;17.10;66.90;;;;;;10195946;28;93658;-54
2023/10/19 09:12:13;;;;;;;;;;;17.10;66.90;;;;;;10199490;28;93676;-53
2023/10/19 09:17:17;;;;;;;;;;;17.00;66.80;;;;;;10203539;28;93817;-54
2023/10/19 09:22:19;;;;;;;;;;;17.10;66.90;;;;;;10185527;28;93419;-54
2023/10/19 09:27:21;;;;;;;;;;;17.00;66.80;;;;;;10176246;28;95860;-54
2023/10/19 09:32:22;;;;;;;;;;;17.00;66.70;;;;;;10188622;28;93436;-52
2023/10/19 09:37:26;;;;;;;;;;;17.00;66.60;;;;;;10192629;28;94388;-52
2023/10/19 09:42:28;;;;;;;;;;;17.00;66.60;;;;;;10183735;28;94187;-53
2023/10/19 09:47:35;;;;;;;;;;;17.00;66.70;;;;;;10202042;28;94592;-54
2023/10/19 09:52:39;;;;;;;;;;;17.00;66.60;;;;;;10204862;28;95304;-54
2023/10/19 09:58:07;;;;;;;;;;;17.00;66.60;;;;;;10186137;28;93452;-54
2023/10/19 10:03:29;;;;;;;;;;;17.00;66.60;;;;;;10154656;28;93335;-54
2023/10/19 10:08:32;;;;;;;;;;;17.00;66.60;;;;;;10190411;28;93442;-53
2023/10/19 10:13:37;;;;;;;;;;;17.00;66.50;;;;;;10200856;28;94919;-54
2023/10/19 10:18:40;;;;;;;;;;;17.00;66.50;;;;;;10195758;28;96984;-53
2023/10/19 10:23:43;;;;;;;;;;;17.10;66.60;;;;;;10195151;28;93891;-53
2023/10/19 10:28:46;;;;;;;;;;;17.00;66.60;;;;;;10205883;28;93410;-54
2023/10/19 10:33:49;;;;;;;;;;;17.10;66.60;;;;;;10206961;28;95875;-53
2023/10/19 10:38:51;;;;;;;;;;;17.00;66.60;;;;;;10204787;28;95149;-52
2023/10/19 10:43:54;;;;;;;;;;;17.00;66.60;;;;;;10185353;28;94662;-54
2023/10/19 10:48:56;;;;;;;;;;;17.10;66.00;;;;;;10178057;28;93520;-54
2023/10/19 10:53:58;;;;;;;;;;;17.10;65.30;;;;;;10189710;28;93271;-48
2023/10/19 10:59:11;;;;;;;;;;;17.10;64.90;;;;;;10206395;28;94297;-54
2023/10/19 11:04:16;;;;;;;;;;;17.10;64.40;;;;;;10177307;28;94964;-52
2023/10/19 11:09:18;;;;;;;;;;;17.20;64.10;;;;;;10188951;28;96508;-54
2023/10/19 11:14:23;;;;;;;;;;;17.20;63.70;;;;;;10204943;28;93898;-52
2023/10/19 11:19:37;;;;;;;;;;;17.20;63.40;;;;;;10195602;28;95223;-54
2023/10/19 11:24:40;;;;;;;;;;;17.20;63.10;;;;;;10207066;28;93037;-54
2023/10/19 11:29:53;;;;;;;;;;;17.20;62.80;;;;;;10188728;28;95304;-53
2023/10/19 11:34:56;;;;;;;;;;;17.20;62.60;;;;;;10197055;28;94621;-53
2023/10/19 11:39:58;;;;;;;;;;;17.20;62.40;;;;;;10205950;28;94986;-52
2023/10/19 11:45:00;;;;;;;;;;;17.20;62.20;;;;;;10205402;28;93091;-54
2023/10/19 11:50:02;;;;;;;;;;;17.20;62.70;;;;;;10193550;28;94150;-53
2023/10/19 11:55:05;;;;;;;;;;;17.20;63.10;;;;;;10188562;28;94589;-53
2023/10/19 12:00:13;;;;;;;;;;;17.20;62.90;;;;;;10196041;28;96245;-54
2023/10/19 12:05:15;;;;;;;;;;;17.20;62.60;;;;;;10198257;28;95690;-55
2023/10/19 12:10:20;;;;;;;;;;;17.20;62.30;;;;;;10187809;28;94562;-54
2023/10/19 12:15:22;;;;;;;;;;;17.30;62.10;;;;;;10206870;28;94494;-54
2023/10/19 12:20:24;;;;;;;;;;;17.30;61.80;;;;;;10205317;28;94127;-52
2023/10/19 12:25:29;;;;;;;;;;;17.30;61.60;;;;;;10203067;28;93773;-53
2023/10/19 12:30:44;;;;;;;;;;;17.30;61.30;;;;;;10192462;28;94448;-53
2023/10/19 12:35:51;;;;;;;;;;;17.30;61.00;;;;;;10179822;28;94181;-54
2023/10/19 12:40:54;;;;;;;;;;;17.30;60.80;;;;;;10195925;28;94830;-53
2023/10/19 12:45:57;;;;;;;;;;;17.30;60.70;;;;;;10178759;28;95780;-54
2023/10/19 12:51:01;;;;;;;;;;;17.30;60.40;;;;;;10178761;28;96439;-53
2023/10/19 12:56:03;;;;;;;;;;;17.30;60.40;;;;;;10186526;28;94238;-54
2023/10/19 13:01:05;;;;;;;;;;;17.40;60.30;;;;;;10203762;28;93705;-51
2023/10/19 13:06:07;;;;;;;;;;;17.40;60.10;;;;;;10191546;28;93521;-54
2023/10/19 13:11:15;;;;;;;;;;;17.40;60.00;;;;;;10188516;28;94545;-53
2023/10/19 13:16:19;;;;;;;;;;;17.40;59.80;;;;;;10200740;28;93941;-53
2023/10/19 13:21:27;;;;;;;;;;;17.40;59.80;;;;;;10183389;28;94550;-54
2023/10/19 13:26:29;;;;;;;;;;;17.40;59.90;;;;;;10181689;28;92813;-54
2023/10/19 13:31:32;;;;;;;;;;;17.30;59.80;;;;;;10195196;28;93188;-53
2023/10/19 13:36:34;;;;;;;;;;;17.30;59.80;;;;;;10181806;28;94652;-52
2023/10/19 13:41:36;;;;;;;;;;;17.40;59.80;;;;;;10163762;28;95935;-54
2023/10/19 13:46:38;;;;;;;;;;;17.30;59.60;;;;;;10182417;28;93197;-54
2023/10/19 13:51:40;;;;;;;;;;;17.30;59.40;;;;;;10189292;28;94489;-54
2023/10/19 13:56:42;;;;;;;;;;;17.30;59.30;;;;;;10191257;28;93581;-54
2023/10/19 14:01:44;;;;;;;;;;;17.30;59.10;;;;;;10185863;28;94491;-54
2023/10/19 14:06:49;;;;;;;;;;;17.30;59.00;;;;;;10172873;28;94702;-55
2023/10/19 14:11:50;;;;;;;;;;;17.30;59.00;;;;;;10199736;28;94486;-54
2023/10/19 14:16:52;;;;;;;;;;;17.30;58.80;;;;;;10202607;28;92679;-54
2023/10/19 14:21:54;;;;;;;;;;;17.30;58.70;;;;;;10200880;28;94788;-53
2023/10/19 14:26:56;;;;;;;;;;;17.30;58.60;;;;;;10199804;28;94146;-53
2023/10/19 14:31:58;;;;;;;;;;;17.30;58.50;;;;;;10178316;28;95790;-53
2023/10/19 14:37:00;;;;;;;;;;;17.30;58.50;;;;;;10193460;28;94452;-51
2023/10/19 14:42:02;;;;;;;;;;;17.30;58.30;;;;;;10192600;28;94427;-54
2023/10/19 14:47:04;;;;;;;;;;;17.30;58.30;;;;;;10190281;28;94627;-52
2023/10/19 14:52:06;;;;;;;;;;;17.20;58.20;;;;;;10190047;28;93538;-54
2023/10/19 14:57:08;;;;;;;;;;;17.30;58.20;;;;;;10187819;28;94544;-52
2023/10/19 15:02:12;;;;;;;;;;;17.20;58.90;;;;;;10195396;28;93491;-54
2023/10/19 15:07:14;;;;;;;;;;;17.30;59.30;;;;;;10193338;28;93152;-54
2023/10/19 15:12:16;;;;;;;;;;;17.30;59.60;;;;;;10199971;28;94227;-54
2023/10/19 15:17:18;;;;;;;;;;;17.30;59.90;;;;;;10189400;28;94426;-54
2023/10/19 15:22:20;;;;;;;;;;;17.30;59.90;;;;;;10200799;28;95822;-52
2023/10/19 15:27:21;;;;;;;;;;;17.40;59.80;;;;;;10183137;28;94449;-53
2023/10/19 15:32:24;;;;;;;;;;;17.40;59.70;;;;;;10201938;28;93510;-54
2023/10/19 15:37:27;;;;;;;;;;;17.50;59.80;;;;;;10199612;28;94748;-54
2023/10/19 15:42:28;;;;;;;;;;;17.60;60.50;;;;;;10195759;28;94018;-53
2023/10/19 15:47:33;;;;;;;;;;;17.70;65.80;;;;;;10183310;28;94733;-54
2023/10/19 15:52:36;;;;;;;;;;;17.80;65.80;;;;;;10196535;28;95732;-55
2023/10/19 15:57:38;;;;;;;;;;;17.80;67.00;;;;;;10190676;28;92741;-54
2023/10/19 16:02:44;;;;;;;;;;;17.90;67.20;;;;;;10189112;28;93704;-54
2023/10/19 16:07:47;;;;;;;;;;;18.00;68.00;;;;;;10196594;28;93912;-53
2023/10/19 16:12:48;;;;;;;;;;;18.00;67.40;;;;;;10176168;28;96883;-54
2023/10/19 16:17:50;;;;;;;;;;;18.10;66.90;;;;;;10170387;28;94584;-52
2023/10/19 16:22:53;;;;;;;;;;;18.10;66.40;;;;;;10173749;28;94590;-53
2023/10/19 16:27:56;;;;;;;;;;;18.10;66.30;;;;;;10193797;28;93484;-49
2023/10/19 16:32:57;;;;;;;;;;;18.10;66.40;;;;;;10181167;28;93482;-50
2023/10/19 16:37:59;;;;;;;;;;;18.10;66.30;;;;;;10177004;28;94315;-52
2023/10/19 16:43:02;;;;;;;;;;;18.10;66.20;;;;;;10207872;28;95035;-53
2023/10/19 16:48:06;;;;;;;;;;;18.10;66.30;;;;;;10198660;28;93174;-53
2023/10/19 16:53:08;;;;;;;;;;;18.10;66.60;;;;;;10194672;28;94707;-49
2023/10/19 16:58:10;;;;;;;;;;;18.00;66.60;;;;;;10187533;28;93340;-52
2023/10/19 17:03:12;;;;;;;;;;;18.00;66.80;;;;;;10191148;28;96527;-51
2023/10/19 17:08:14;;;;;;;;;;;18.00;67.00;;;;;;10198616;28;94142;-52
2023/10/19 17:13:16;;;;;;;;;;;18.00;67.10;;;;;;10194742;28;94633;-53
2023/10/19 17:18:18;;;;;;;;;;;17.90;67.30;;;;;;10201772;28;93385;-50
2023/10/19 17:23:20;;;;;;;;;;;18.00;67.50;;;;;;10200529;28;93343;-52
2023/10/19 17:28:22;;;;;;;;;;;17.90;67.60;;;;;;10197002;28;96404;-52
2023/10/19 17:33:24;;;;;;;;;;;17.90;67.90;;;;;;10194598;28;94455;-49
2023/10/19 17:38:26;;;;;;;;;;;17.90;68.00;;;;;;10191371;28;95056;-52
2023/10/19 17:43:28;;;;;;;;;;;17.80;68.00;;;;;;10161652;28;92665;-53
2023/10/19 17:48:30;;;;;;;;;;;17.80;68.00;;;;;;10191550;28;93833;-53
2023/10/19 17:53:32;;;;;;;;;;;17.80;68.20;;;;;;10183271;28;96017;-55
2023/10/19 17:58:34;;;;;;;;;;;17.80;68.40;;;;;;10187955;28;93429;-57
2023/10/19 18:03:38;;;;;;;;;;;17.80;68.40;;;;;;10196381;28;93467;-54
2023/10/19 18:08:40;;;;;;;;;;;17.80;68.50;;;;;;10175033;28;94919;-55
2023/10/19 18:13:42;;;;;;;;;;;17.80;68.50;;;;;;10173356;28;94799;-55
2023/10/19 18:18:47;;;;;;;;;;;17.90;68.60;;;;;;10192539;28;94485;-55
2023/10/19 18:23:49;;;;;;;;;;;17.90;68.40;;;;;;10198749;28;94015;-55
2023/10/19 18:28:51;;;;;;;;;;;17.90;68.50;;;;;;10186197;28;93847;-54
2023/10/19 18:33:53;;;;;;;;;;;17.90;68.50;;;;;;10186168;28;93612;-55
2023/10/19 18:38:56;;;;;;;;;;;17.90;68.70;;;;;;10195359;28;94756;-55
2023/10/19 18:43:59;;;;;;;;;;;17.90;68.60;;;;;;10181074;28;95877;-51
2023/10/19 18:49:01;;;;;;;;;;;17.90;68.60;;;;;;10195959;28;94362;-48
2023/10/19 18:54:05;;;;;;;;;;;17.90;68.60;;;;;;10195775;28;93417;-50
2023/10/19 18:59:07;;;;;;;;;;;17.90;68.60;;;;;;10179254;28;94114;-52
2023/10/19 19:04:09;;;;;;;;;;;17.90;68.50;;;;;;10187668;28;94541;-53
2023/10/19 19:09:13;;;;;;;;;;;17.90;68.60;;;;;;10194816;28;93472;-53
2023/10/19 19:14:15;;;;;;;;;;;17.90;68.60;;;;;;10178180;28;93528;-53
2023/10/19 19:19:17;;;;;;;;;;;17.90;68.60;;;;;;10206128;28;92699;-52
2023/10/19 19:24:21;;;;;;;;;;;17.90;68.50;;;;;;10196159;28;93454;-52
2023/10/19 19:29:22;;;;;;;;;;;17.90;68.50;;;;;;10203068;28;94383;-56
2023/10/19 19:34:25;;;;;;;;;;;17.90;68.50;;;;;;10180325;28;96458;-51
2023/10/19 19:39:27;;;;;;;;;;;17.90;68.50;;;;;;10197275;28;93649;-50
2023/10/19 19:44:29;;;;;;;;;;;17.90;68.50;;;;;;10196758;28;93004;-53
2023/10/19 19:49:32;;;;;;;;;;;17.90;68.50;;;;;;10198632;28;93485;-53
2023/10/19 19:54:34;;;;;;;;;;;17.90;68.50;;;;;;10178634;28;93655;-53
2023/10/19 19:59:36;;;;;;;;;;;17.90;68.50;;;;;;10184205;28;93431;-53
2023/10/19 20:04:38;;;;;;;;;;;17.90;68.60;;;;;;10181090;28;94459;-53
2023/10/19 20:09:40;;;;;;;;;;;17.80;68.60;;;;;;10195489;28;92701;-53
2023/10/19 20:14:42;;;;;;;;;;;17.80;68.60;;;;;;10182993;28;93448;-51
2023/10/19 20:19:44;;;;;;;;;;;17.80;68.60;;;;;;10192250;28;95364;-49
2023/10/19 20:24:47;;;;;;;;;;;17.70;68.60;;;;;;10181091;28;95402;-51
2023/10/19 20:29:49;;;;;;;;;;;17.70;68.60;;;;;;10203871;28;93651;-48
2023/10/19 20:34:51;;;;;;;;;;;17.70;68.70;;;;;;10193137;28;93731;-50
2023/10/19 20:39:53;;;;;;;;;;;17.70;68.60;;;;;;10202396;28;93930;-52
2023/10/19 20:44:54;;;;;;;;;;;17.70;68.60;;;;;;10202641;28;93445;-49
2023/10/19 20:49:56;;;;;;;;;;;17.70;68.50;;;;;;10204488;28;93676;-48
2023/10/19 20:54:58;;;;;;;;;;;17.70;68.40;;;;;;10203734;28;94494;-52
2023/10/19 21:00:00;;;;;;;;;;;17.70;68.40;;;;;;10187519;28;93711;-51
2023/10/19 21:05:02;;;;;;;;;;;17.60;68.40;;;;;;10202883;28;94458;-48
2023/10/19 21:10:06;;;;;;;;;;;17.60;68.50;;;;;;10185124;28;96130;-52
2023/10/19 21:15:12;;;;;;;;;;;17.60;68.50;;;;;;10202281;28;96773;-51
2023/10/19 21:20:15;;;;;;;;;;;17.60;68.30;;;;;;10198424;28;94358;-50
2023/10/19 21:25:18;;;;;;;;;;;17.50;68.30;;;;;;10201630;28;93506;-52
2023/10/19 21:30:20;;;;;;;;;;;17.50;68.40;;;;;;10185170;28;94076;-49
2023/10/19 21:35:22;;;;;;;;;;;17.50;68.30;;;;;;10198103;28;95857;-50
2023/10/19 21:40:24;;;;;;;;;;;17.50;68.20;;;;;;10189212;28;95064;-47
2023/10/19 21:45:25;;;;;;;;;;;17.50;68.20;;;;;;10202650;28;94489;-50
2023/10/19 21:50:31;;;;;;;;;;;17.50;68.30;;;;;;10202916;28;93608;-49
2023/10/19 21:55:34;;;;;;;;;;;17.50;68.20;;;;;;10201168;28;93812;-52
2023/10/19 22:00:36;;;;;;;;;;;17.50;68.20;;;;;;10198193;28;93213;-52
2023/10/19 22:05:37;;;;;;;;;;;17.50;68.00;;;;;;10197468;28;95857;-51
2023/10/19 22:10:39;;;;;;;;;;;17.50;68.00;;;;;;10202022;28;93680;-52
2023/10/19 22:15:41;;;;;;;;;;;17.50;68.10;;;;;;10189766;28;93480;-51
2023/10/19 22:20:45;;;;;;;;;;;17.50;68.10;;;;;;10177661;28;93452;-49
2023/10/19 22:25:49;;;;;;;;;;;17.40;67.80;;;;;;10199411;28;113991;-47
2023/10/19 22:30:50;;;;;;;;;;;17.50;67.90;;;;;;10201119;28;94637;-50
2023/10/19 22:35:52;;;;;;;;;;;17.50;67.90;;;;;;10201599;28;93473;-52
2023/10/19 22:40:55;;;;;;;;;;;17.40;67.70;;;;;;10201398;28;92734;-51
2023/10/19 22:46:05;;;;;;;;;;;17.50;67.80;;;;;;10187614;28;93343;-47
2023/10/19 22:51:07;;;;;;;;;;;17.50;67.80;;;;;;10188689;28;93436;-51
2023/10/19 22:56:09;;;;;;;;;;;17.50;67.80;;;;;;10182450;28;97361;-47
2023/10/19 23:01:12;;;;;;;;;;;17.50;67.80;;;;;;10193944;28;94790;-49
2023/10/19 23:06:15;;;;;;;;;;;17.50;67.80;;;;;;10170532;28;95418;-52
2023/10/19 23:11:17;;;;;;;;;;;17.50;67.70;;;;;;10205516;28;94531;-50
2023/10/19 23:16:21;;;;;;;;;;;17.50;67.60;;;;;;10205478;28;93488;-51
2023/10/19 23:21:27;;;;;;;;;;;17.50;67.50;;;;;;10205769;28;93536;-50
2023/10/19 23:26:29;;;;;;;;;;;17.50;67.40;;;;;;10207333;28;93513;-47
2023/10/19 23:31:33;;;;;;;;;;;17.50;67.30;;;;;;10207243;28;93035;-52
2023/10/19 23:36:36;;;;;;;;;;;17.50;67.30;;;;;;10198099;28;93352;-51
2023/10/19 23:41:38;;;;;;;;;;;17.50;67.30;;;;;;10197243;28;94548;-49
2023/10/19 23:46:40;;;;;;;;;;;17.50;67.20;;;;;;10203333;28;96885;-48
2023/10/19 23:51:42;;;;;;;;;;;17.50;67.20;;;;;;10204622;28;94683;-51
2023/10/19 23:56:44;;;;;;;;;;;17.50;67.20;;;;;;10206549;28;94469;-48
